Berlin Dahlem, Germany

2:01 AM CET on December 22, 2014 (GMT +0100)
Tegel | Change Station
CLOSE
Current Station
Airport
Location: Berlin Tegel,
Elevation: 121 ft
Nearby Weather Stations

Elev 121 ft 52.56 °N, 13.31 °E | Updated 11 minutes ago

Light Rain
Light Rain
45 °F
Feels Like 36 °F
N
21
Wind Variable Wind from WSW

Today
High -- | Low -- °F
--% Chance of Precip.
Yesterday
High -- | Low -- °F
Precip. -- in
8:15 AM 3:55 PM
Waning Crescent, 0% visible
Pressure 29.89 in
Visibility 6.2 miles
Clouds Mostly Cloudy 1500 ft
Overcast 2000 ft
Windchill 36 °F
Dew Point 43 °F
Humidity 93%
Rainfall 0.00 in
Snow Depth Not available.
UV 0 out of 12
Pollen Not available.
Air Quality Not available.
Flu Activity Not available.
METAR EDDT 220050Z 24018KT 9999 -RA BKN015 OVC020 07/06 Q1012

More Conditions Fewer Conditions

Pressure 29.89 in
Visibility 6.2 miles
Clouds Mostly Cloudy 1500 ft
Overcast 2000 ft
Windchill 36 °F
Dew Point 43 °F
Humidity 93%
Rainfall 0.00 in
Snow Depth Not available.
UV 0 out of 12
Pollen Not available.
Air Quality Not available.
Flu Activity Not available.
METAR EDDT 220050Z 24018KT 9999 -RA BKN015 OVC020 07/06 Q1012

More Conditions Fewer Conditions

10-Day Weather Forecast

Almanac

Astronomy

Dec. 22, 2014 Rise Set
Actual Time
Civil Twilight
Nautical Twilight
Astronomical Twilight
Moon
Length of Visible Light
Length of Day
Tomorrow will be .
, % of the Moon is Illuminated

Today's Extremes

Country Highs Country Lows

Community

WunderPhotos

Upload Photos

1,779,511 photos uploaded!

WunderBlogs® & News

Nearby

Air Quality

  Air Quality AQ Index Pollutant
Not available.

Snow Depth

Station Depth Elevation

Earthquake Activity

City Distance Mag. Time & Date
Minimum magnitude displayed is 2.5.

Coastal Water Temperatures

Place Temperature

Nearby Weather Stations